createdAt,value
2023-02-16T00:00:57.425Z,89.47
2023-02-16T00:04:02.020Z,89.41
2023-02-16T00:07:04.907Z,89.85
2023-02-16T00:10:08.329Z,90.01
2023-02-16T00:13:40.811Z,89.63
2023-02-16T00:16:43.730Z,90.12
2023-02-16T00:19:47.689Z,89.64
2023-02-16T00:22:50.351Z,89.49
2023-02-16T00:25:53.041Z,89.66
2023-02-16T00:28:59.399Z,89.23
2023-02-16T00:32:04.800Z,89.60
2023-02-16T00:35:15.770Z,89.34
2023-02-16T00:38:20.622Z,89.09
2023-02-16T00:41:46.888Z,89.31
2023-02-16T00:44:54.071Z,89.32
2023-02-16T00:47:56.873Z,89.04
2023-02-16T00:51:13.804Z,89.24
2023-02-16T00:54:23.056Z,89.24
2023-02-16T00:57:26.942Z,89.37
2023-02-16T01:00:41.716Z,88.99
2023-02-16T01:03:45.293Z,89.64
2023-02-16T01:07:07.538Z,89.57
2023-02-16T01:10:31.006Z,89.90
2023-02-16T01:13:44.831Z,89.19
2023-02-16T01:16:47.579Z,89.28
2023-02-16T01:19:50.272Z,89.48
2023-02-16T01:22:57.473Z,89.24
2023-02-16T01:26:03.263Z,89.54
2023-02-16T01:29:06.428Z,88.98
2023-02-16T01:32:11.918Z,89.19
2023-02-16T01:35:18.190Z,89.02
2023-02-16T01:38:24.235Z,89.04
2023-02-16T01:41:47.544Z,88.98
2023-02-16T01:44:59.213Z,88.99
2023-02-16T01:48:05.636Z,88.95
2023-02-16T01:51:17.501Z,89.27
2023-02-16T01:54:39.829Z,88.83
2023-02-16T01:57:46.027Z,89.04
2023-02-16T02:01:41.881Z,88.64
2023-02-16T02:05:06.076Z,88.68
2023-02-16T02:08:17.501Z,88.46
2023-02-16T02:11:35.635Z,88.92
2023-02-16T02:14:40.330Z,88.74
2023-02-16T02:17:42.933Z,89.13
2023-02-16T02:21:20.161Z,88.81
2023-02-16T02:25:03.032Z,89.18
2023-02-16T02:28:13.506Z,88.82
2023-02-16T02:31:42.508Z,88.98
2023-02-16T02:34:58.725Z,89.26
2023-02-16T02:41:50.705Z,89.00
2023-02-16T02:44:59.129Z,88.98
2023-02-16T02:48:09.391Z,89.35
2023-02-16T02:51:33.790Z,89.07
2023-02-16T02:55:00.160Z,89.28
2023-02-16T02:58:24.081Z,88.88
2023-02-16T03:01:34.097Z,88.76
2023-02-16T03:04:37.095Z,88.88
2023-02-16T03:07:50.404Z,89.63
2023-02-16T03:11:14.193Z,89.39
2023-02-16T03:14:19.596Z,89.56
2023-02-16T03:17:52.639Z,89.06
2023-02-16T03:21:17.587Z,88.82
2023-02-16T03:24:41.707Z,88.50
2023-02-16T03:28:02.409Z,88.81
2023-02-16T03:31:07.473Z,88.36
2023-02-16T03:34:12.724Z,88.63
2023-02-16T03:37:21.686Z,88.83
2023-02-16T03:40:30.170Z,89.00
2023-02-16T03:43:37.930Z,89.07
2023-02-16T03:46:40.676Z,89.09
2023-02-16T03:49:44.766Z,89.01
2023-02-16T03:53:06.509Z,88.94
2023-02-16T03:56:09.186Z,89.39
2023-02-16T03:59:14.861Z,89.47
2023-02-16T04:02:17.622Z,89.43
2023-02-16T04:05:21.715Z,89.72
2023-02-16T04:08:24.530Z,89.83
2023-02-16T04:11:44.585Z,89.72
2023-02-16T04:14:47.266Z,89.71
2023-02-16T04:17:50.203Z,89.19
2023-02-16T04:20:56.708Z,88.91
2023-02-16T04:24:00.236Z,88.76
2023-02-16T04:27:03.439Z,88.64
2023-02-16T04:30:08.163Z,88.52
2023-02-16T04:33:16.910Z,88.65
2023-02-16T04:36:20.961Z,88.81
2023-02-16T04:39:23.622Z,89.09
2023-02-16T04:42:26.331Z,89.00
2023-02-16T04:45:30.543Z,88.87
2023-02-16T04:48:33.177Z,89.16
2023-02-16T04:51:40.009Z,88.84
2023-02-16T04:54:49.808Z,88.88
2023-02-16T04:57:52.464Z,89.05
2023-02-16T05:00:55.057Z,88.89
2023-02-16T05:03:58.132Z,88.78
2023-02-16T05:07:11.292Z,88.70
2023-02-16T05:10:15.575Z,88.46
2023-02-16T05:13:40.672Z,88.85
2023-02-16T05:16:47.598Z,88.61
2023-02-16T05:19:51.991Z,88.53
2023-02-16T05:22:55.957Z,88.63
2023-02-16T05:25:58.611Z,88.38
2023-02-16T05:29:01.539Z,88.71
2023-02-16T05:32:04.959Z,88.84
2023-02-16T05:35:07.875Z,89.00
2023-02-16T05:38:11.941Z,89.07
2023-02-16T05:41:25.170Z,89.01
2023-02-16T05:44:29.789Z,88.80
2023-02-16T05:47:32.579Z,88.32
2023-02-16T05:50:35.199Z,88.44
2023-02-16T05:53:39.208Z,88.89
2023-02-16T05:56:46.939Z,88.66
2023-02-16T05:59:49.586Z,88.59
2023-02-16T06:02:52.801Z,88.56
2023-02-16T06:05:56.598Z,88.44
2023-02-16T06:09:01.870Z,88.71
2023-02-16T06:12:09.400Z,88.33
2023-02-16T06:15:26.073Z,88.61
2023-02-16T06:18:28.705Z,88.91
2023-02-16T06:21:40.722Z,89.22
2023-02-16T06:24:44.713Z,89.26
2023-02-16T06:27:47.676Z,89.61
2023-02-16T06:30:51.078Z,89.51
2023-02-16T06:33:56.660Z,89.82
2023-02-16T06:36:59.325Z,89.72
2023-02-16T06:40:03.796Z,89.15
2023-02-16T06:43:06.807Z,88.90
2023-02-16T06:46:11.594Z,88.88
2023-02-16T06:49:16.810Z,89.04
2023-02-16T06:52:19.639Z,89.00
2023-02-16T06:55:23.936Z,88.81
2023-02-16T06:58:26.770Z,89.14
2023-02-16T07:01:29.909Z,88.78
2023-02-16T07:04:38.769Z,88.65
2023-02-16T07:07:41.617Z,88.73
2023-02-16T07:10:50.404Z,88.52
2023-02-16T07:13:55.720Z,88.89
2023-02-16T07:17:04.286Z,88.91
2023-02-16T07:20:13.150Z,89.09
2023-02-16T07:23:18.831Z,89.82
2023-02-16T07:26:30.341Z,90.02
2023-02-16T07:29:33.003Z,90.36
2023-02-16T07:32:40.246Z,90.01
2023-02-16T07:35:44.386Z,89.72
2023-02-16T07:38:47.714Z,90.03
2023-02-16T07:41:54.832Z,88.94
2023-02-16T07:45:00.834Z,89.01
2023-02-16T07:48:06.753Z,89.11
2023-02-16T07:51:11.707Z,89.43
2023-02-16T07:54:14.337Z,89.84
2023-02-16T07:57:18.385Z,89.70
2023-02-16T08:00:29.953Z,89.51
2023-02-16T08:03:35.808Z,90.04
2023-02-16T08:06:41.512Z,88.23
2023-02-16T08:09:44.626Z,88.99
2023-02-16T08:12:55.252Z,88.35
2023-02-16T08:15:58.017Z,89.28
2023-02-16T08:19:03.588Z,88.93
2023-02-16T08:22:07.337Z,89.19
2023-02-16T08:25:10.349Z,89.02
2023-02-16T08:28:14.819Z,88.74
2023-02-16T08:31:25.912Z,89.37
2023-02-16T08:34:28.655Z,89.32
2023-02-16T08:37:35.984Z,89.06
2023-02-16T08:40:48.128Z,87.44
2023-02-16T08:43:52.304Z,86.18
2023-02-16T08:47:00.343Z,86.25
2023-02-16T08:50:03.560Z,85.23
2023-02-16T08:53:06.275Z,84.64
2023-02-16T08:56:09.833Z,86.15
2023-02-16T08:59:15.222Z,84.01
2023-02-16T09:02:20.303Z,83.87
2023-02-16T09:05:23.666Z,83.75
2023-02-16T09:08:33.625Z,84.63
2023-02-16T09:12:01.516Z,85.00
2023-02-16T09:15:09.500Z,86.09
2023-02-16T09:18:14.009Z,87.06
2023-02-16T09:21:19.538Z,85.94
2023-02-16T09:24:22.917Z,84.86
2023-02-16T09:27:26.015Z,85.35
2023-02-16T09:30:30.124Z,85.08
2023-02-16T09:33:35.961Z,81.75
2023-02-16T09:36:52.889Z,82.38
2023-02-16T09:39:58.370Z,83.19
2023-02-16T09:43:09.397Z,82.95
2023-02-16T09:46:17.091Z,83.90
2023-02-16T09:49:28.310Z,81.62
2023-02-16T09:52:37.642Z,82.12
2023-02-16T09:55:48.495Z,81.99
2023-02-16T09:58:57.756Z,82.71
2023-02-16T10:02:22.396Z,84.48
2023-02-16T10:05:31.230Z,83.67
2023-02-16T10:08:39.204Z,83.67
2023-02-16T10:11:48.868Z,84.29
2023-02-16T10:14:53.974Z,84.63
2023-02-16T10:18:07.473Z,85.89
2023-02-16T10:21:18.031Z,85.87
2023-02-16T10:24:20.920Z,85.75
2023-02-16T10:27:24.122Z,86.26
2023-02-16T10:30:32.855Z,86.27
2023-02-16T10:33:43.977Z,86.98
2023-02-16T10:37:11.616Z,87.09
2023-02-16T10:40:24.351Z,86.50
2023-02-16T10:43:43.035Z,85.63
2023-02-16T10:46:50.074Z,85.11
2023-02-16T10:49:54.385Z,84.89
2023-02-16T10:53:02.970Z,84.79
2023-02-16T10:56:34.865Z,84.60
2023-02-16T10:59:42.428Z,84.93
2023-02-16T11:02:48.213Z,84.84
2023-02-16T11:05:56.384Z,83.45
2023-02-16T11:09:01.146Z,84.54
2023-02-16T11:12:16.669Z,84.21
2023-02-16T11:15:44.547Z,84.19
2023-02-16T11:18:59.718Z,84.94
2023-02-16T11:22:08.658Z,84.85
2023-02-16T11:25:27.054Z,84.81
2023-02-16T11:28:33.544Z,84.12
2023-02-16T11:31:40.859Z,83.80
2023-02-16T11:34:46.911Z,83.79
2023-02-16T11:37:53.834Z,82.88
2023-02-16T11:40:57.994Z,82.71
2023-02-16T11:44:10.498Z,82.28
2023-02-16T11:47:32.843Z,81.59
2023-02-16T11:50:38.625Z,81.69
2023-02-16T11:53:44.615Z,81.71
2023-02-16T11:57:07.413Z,80.67
2023-02-16T12:00:18.155Z,81.38
2023-02-16T12:03:51.121Z,81.15
2023-02-16T12:10:44.419Z,81.26
2023-02-16T12:13:59.237Z,79.75
2023-02-16T12:17:16.615Z,78.86
2023-02-16T12:20:38.344Z,79.26
2023-02-16T12:23:43.741Z,79.28
2023-02-16T12:26:53.163Z,79.77
2023-02-16T12:30:02.747Z,79.99
2023-02-16T12:33:27.934Z,78.32
2023-02-16T12:36:58.874Z,77.93
2023-02-16T12:40:23.538Z,78.96
2023-02-16T12:43:38.279Z,77.86
2023-02-16T12:46:45.720Z,77.65
2023-02-16T12:49:53.758Z,77.66
2023-02-16T12:52:59.999Z,78.48
2023-02-16T12:56:10.824Z,78.42
2023-02-16T12:59:21.312Z,77.54
2023-02-16T13:02:29.727Z,77.75
2023-02-16T13:05:42.740Z,77.80
2023-02-16T13:08:52.376Z,76.83
2023-02-16T13:12:02.412Z,77.13
2023-02-16T13:15:17.806Z,77.18
2023-02-16T13:18:23.181Z,76.90
2023-02-16T13:21:51.244Z,75.82
2023-02-16T13:25:10.931Z,77.37
2023-02-16T13:28:34.182Z,76.83
2023-02-16T13:31:57.881Z,78.50
2023-02-16T13:35:44.514Z,78.16
2023-02-16T13:39:19.172Z,77.80
2023-02-16T13:42:40.845Z,78.21
2023-02-16T13:45:46.851Z,78.45
2023-02-16T13:48:53.488Z,78.76
2023-02-16T13:51:56.579Z,79.66
2023-02-16T13:55:01.940Z,79.29
2023-02-16T13:58:08.673Z,79.33
2023-02-16T14:01:43.506Z,79.25
2023-02-16T14:05:07.343Z,79.00
2023-02-16T14:08:17.081Z,78.58
2023-02-16T14:11:22.275Z,79.19
2023-02-16T14:14:31.236Z,79.02
2023-02-16T14:17:37.734Z,79.73
2023-02-16T14:20:41.794Z,78.99
2023-02-16T14:23:46.258Z,78.55
2023-02-16T14:26:55.506Z,78.18
2023-02-16T14:30:02.534Z,78.49
2023-02-16T14:33:21.563Z,79.68
2023-02-16T14:36:27.673Z,80.32
2023-02-16T14:39:30.754Z,79.84
2023-02-16T14:42:35.998Z,80.30
2023-02-16T14:46:19.327Z,80.10
2023-02-16T14:49:55.500Z,80.94
2023-02-16T14:53:28.224Z,80.16
2023-02-16T14:56:39.778Z,81.41
2023-02-16T14:59:52.156Z,81.02
2023-02-16T15:02:58.511Z,81.17
2023-02-16T15:06:07.837Z,80.95
2023-02-16T15:09:17.763Z,81.22
2023-02-16T15:13:15.940Z,81.38
2023-02-16T15:16:19.259Z,81.37
2023-02-16T15:19:30.244Z,81.72
2023-02-16T15:22:33.496Z,81.85
2023-02-16T15:25:39.438Z,80.97
2023-02-16T15:28:43.390Z,81.44
2023-02-16T15:31:46.771Z,81.75
2023-02-16T15:34:50.995Z,81.30
2023-02-16T15:38:23.380Z,81.51
2023-02-16T15:41:34.234Z,82.07
2023-02-16T15:44:39.184Z,82.37
2023-02-16T15:47:44.178Z,82.55
2023-02-16T15:50:49.251Z,82.50
2023-02-16T15:53:54.366Z,82.49
2023-02-16T15:57:02.025Z,82.75
2023-02-16T16:00:07.451Z,83.48
2023-02-16T16:03:15.315Z,84.73
2023-02-16T16:06:21.094Z,85.16
2023-02-16T16:09:26.501Z,85.34
2023-02-16T16:12:31.440Z,85.92
2023-02-16T16:15:39.810Z,85.97
2023-02-16T16:18:47.537Z,85.46
2023-02-16T16:21:54.267Z,85.43
2023-02-16T16:24:57.270Z,85.83
2023-02-16T16:28:04.200Z,86.02
2023-02-16T16:31:09.546Z,86.03
2023-02-16T16:34:32.827Z,86.11
2023-02-16T16:37:37.613Z,85.71
2023-02-16T16:40:40.712Z,85.86
2023-02-16T16:43:54.955Z,86.31
2023-02-16T16:46:57.616Z,86.65
2023-02-16T16:50:02.564Z,86.44
2023-02-16T16:53:41.489Z,85.83
2023-02-16T16:56:44.225Z,86.05
2023-02-16T16:59:48.182Z,86.00
2023-02-16T17:02:51.600Z,86.48
2023-02-16T17:05:54.248Z,86.44
2023-02-16T17:08:58.476Z,86.69
2023-02-16T17:12:01.212Z,86.71
2023-02-16T17:15:08.761Z,86.73
2023-02-16T17:18:16.233Z,86.68
2023-02-16T17:21:20.221Z,87.00
2023-02-16T17:24:22.894Z,87.16
2023-02-16T17:27:25.491Z,87.45
2023-02-16T17:30:29.511Z,87.09
2023-02-16T17:33:32.134Z,87.00
2023-02-16T17:36:35.549Z,86.97
2023-02-16T17:39:38.572Z,86.54
2023-02-16T17:42:41.615Z,86.72
2023-02-16T17:45:46.923Z,86.62
2023-02-16T17:48:52.621Z,86.64
2023-02-16T17:51:56.345Z,86.17
2023-02-16T17:54:59.565Z,86.32
2023-02-16T17:58:02.980Z,86.79
2023-02-16T18:01:07.436Z,87.05
2023-02-16T18:04:10.234Z,86.89
2023-02-16T18:07:13.625Z,86.95
2023-02-16T18:10:21.782Z,87.17
2023-02-16T18:13:24.400Z,86.81
2023-02-16T18:16:28.608Z,87.60
2023-02-16T18:19:32.832Z,87.01
2023-02-16T18:22:35.510Z,87.24
2023-02-16T18:25:39.117Z,87.99
2023-02-16T18:28:41.805Z,88.13
2023-02-16T18:31:47.616Z,87.82
2023-02-16T18:34:50.460Z,87.50
2023-02-16T18:37:53.224Z,87.71
2023-02-16T18:40:56.428Z,87.29
2023-02-16T18:43:59.073Z,86.94
2023-02-16T18:47:06.125Z,87.29
2023-02-16T18:50:09.760Z,87.69
2023-02-16T18:53:12.617Z,87.82
2023-02-16T18:56:15.294Z,88.30
2023-02-16T18:59:32.040Z,88.43
2023-02-16T19:02:40.859Z,87.42
2023-02-16T19:05:43.826Z,87.70
2023-02-16T19:08:47.480Z,87.94
2023-02-16T19:11:50.152Z,87.90
2023-02-16T19:15:02.873Z,88.26
2023-02-16T19:18:10.068Z,88.00
2023-02-16T19:21:17.009Z,87.73
2023-02-16T19:24:19.655Z,88.10
2023-02-16T19:27:22.437Z,88.59
2023-02-16T19:30:25.183Z,88.58
2023-02-16T19:33:29.236Z,88.79
2023-02-16T19:36:35.064Z,88.84
2023-02-16T19:39:41.281Z,89.61
2023-02-16T19:42:44.721Z,89.44
2023-02-16T19:45:51.278Z,89.55
2023-02-16T19:49:02.249Z,88.82
2023-02-16T19:52:05.193Z,88.85
2023-02-16T19:55:10.067Z,89.08
2023-02-16T19:58:14.080Z,89.22
2023-02-16T20:01:22.119Z,89.39
2023-02-16T20:04:27.329Z,89.55
2023-02-16T20:07:29.948Z,89.61
2023-02-16T20:10:33.786Z,90.31
2023-02-16T20:13:36.559Z,89.37
2023-02-16T20:16:40.080Z,89.62
2023-02-16T20:19:44.337Z,89.00
2023-02-16T20:22:47.518Z,89.79
2023-02-16T20:25:53.243Z,89.53
2023-02-16T20:28:57.298Z,89.65
2023-02-16T20:32:03.198Z,90.06
2023-02-16T20:35:10.068Z,90.46
2023-02-16T20:38:13.136Z,90.06
2023-02-16T20:41:16.120Z,89.77
2023-02-16T20:44:20.172Z,89.69
2023-02-16T20:47:22.823Z,89.50
2023-02-16T20:50:26.788Z,89.27
2023-02-16T20:53:30.101Z,89.98
2023-02-16T20:56:32.837Z,90.01
2023-02-16T20:59:35.472Z,90.21
2023-02-16T21:02:38.112Z,90.06
2023-02-16T21:05:42.641Z,89.34
2023-02-16T21:08:45.552Z,89.12
2023-02-16T21:11:48.236Z,89.26
2023-02-16T21:14:50.911Z,89.55
2023-02-16T21:17:53.562Z,89.94
2023-02-16T21:20:57.602Z,89.88
2023-02-16T21:24:00.252Z,90.01
2023-02-16T21:27:03.875Z,90.26
2023-02-16T21:30:07.894Z,90.59
2023-02-16T21:33:10.745Z,90.43
2023-02-16T21:36:16.721Z,90.74
2023-02-16T21:39:19.578Z,91.44
2023-02-16T21:42:21.323Z,90.99
2023-02-16T21:45:24.067Z,91.11
2023-02-16T21:48:44.582Z,91.03
2023-02-16T21:51:49.698Z,90.16
2023-02-16T21:55:10.776Z,89.61
2023-02-16T21:58:13.711Z,89.54
2023-02-16T22:01:22.583Z,90.02
2023-02-16T22:04:25.753Z,90.46
2023-02-16T22:07:30.536Z,90.16
2023-02-16T22:10:33.185Z,90.60
2023-02-16T22:13:36.366Z,90.77
2023-02-16T22:16:39.664Z,90.76
2023-02-16T22:19:42.280Z,91.41
2023-02-16T22:22:46.833Z,91.40
2023-02-16T22:25:49.456Z,91.76
2023-02-16T22:28:52.590Z,92.29
2023-02-16T22:31:55.259Z,92.25
2023-02-16T22:35:01.070Z,92.81
2023-02-16T22:38:05.121Z,92.47
2023-02-16T22:41:08.612Z,92.04
2023-02-16T22:44:15.645Z,92.55
2023-02-16T22:47:18.632Z,92.30
2023-02-16T22:50:21.270Z,92.20
2023-02-16T22:53:26.966Z,92.18
2023-02-16T22:56:30.681Z,92.45
2023-02-16T22:59:36.725Z,92.98
2023-02-16T23:02:39.392Z,92.95
2023-02-16T23:05:48.466Z,93.15
2023-02-16T23:08:55.004Z,92.77
2023-02-16T23:11:57.604Z,92.59
2023-02-16T23:15:00.183Z,91.65
2023-02-16T23:18:06.914Z,91.58
2023-02-16T23:21:11.527Z,90.86
2023-02-16T23:24:17.676Z,91.42
2023-02-16T23:27:20.273Z,91.36
2023-02-16T23:30:26.208Z,92.17
2023-02-16T23:33:29.019Z,92.41
2023-02-16T23:36:36.053Z,93.29
2023-02-16T23:39:47.503Z,93.36
2023-02-16T23:42:50.124Z,94.01
2023-02-16T23:45:52.860Z,94.05
2023-02-16T23:48:58.708Z,93.66
2023-02-16T23:52:03.556Z,93.83
2023-02-16T23:55:10.716Z,94.17
2023-02-16T23:58:13.314Z,94.06
